Portada
METAR-TAF:

METAR-TAF

Aeroports :

Kokshetau, Kazakhstan

latitud: 53-19-48N, longitud: 069-35-48E, altitud: 270 m

Observació

L'informe es va fer fa 38 minuts, a les 06:30 UTC
Vent 23 kt del Oest
Temperatura 1°C
Humitat 51%
Pressió 1011 hPa
Visibilitat 10 km o més
Cel ennuvolat a una alçada de 4000 ft

METAR: UACK 080630Z 26012MPS 9999 BKN040 01/M08 Q1011 NOSIG RMK QFE735/0980

Hora: 13:08 (07:08 UTC)

Pronòstic

L'informe es va fer fa 2 hores i 8 minuts, a les 05:00 UTC
Pronòstic vàlid del 08 a les 06 UTC al 08 a les 15 UTC
Vent 19 kt del Oest/Sud-Oest amb ràfegues de 29 kt
Visibilitat 10 km o més
Cel ennuvolat a una alçada de 2000 ft
Cel ennuvolat a una alçada de 10000 ft
Temporalment
l' 08 a les 06 UTC al 08 a les 12 UTC
Vent 25 kt del Oest amb ràfegues de 35 kt

TAF: UACK 080500Z 0806/0815 25010G15MPS 9999 BKN020 BKN100 TEMPO 0806/0812 26013G18MPS

Observacions i pronòstics meteorològics de més de 4000 aeroports (METAR i TAF).

Les estacions disponibles són els punts grocs i vermells al mapa.

Posi el ratolí al punt desitjat per veure el nom de l'estació.

Feu clic per veure les observacions i els pronòstics meteorològics.

Per canviar el mapa: feu clic els botons verds amb una creu de color negre per apropar; al botó verd amb un guió per allunyar la imatge; o en les fletxes verdes per a mapes adjacents.


METAR-TAF: